createdAt,value
2022-12-23T00:01:21.848Z,99285.47
2022-12-23T00:03:49.729Z,99286.78
2022-12-23T00:06:19.246Z,99283.88
2022-12-23T00:08:47.423Z,99293.28
2022-12-23T00:11:17.582Z,99288.97
2022-12-23T00:14:03.407Z,99290.72
2022-12-23T00:16:32.675Z,99293.91
2022-12-23T00:19:00.519Z,99289.63
2022-12-23T00:21:28.380Z,99289.91
2022-12-23T00:23:56.168Z,99278.03
2022-12-23T00:26:25.652Z,99285.03
2022-12-23T00:28:53.897Z,99272.69
2022-12-23T00:31:22.079Z,99275.81
2022-12-23T00:33:54.278Z,99258.69
2022-12-23T00:36:24.220Z,99260.88
2022-12-23T00:39:10.229Z,99271.97
2022-12-23T00:41:56.050Z,99270.78
2022-12-23T00:44:24.217Z,99275.41
2022-12-23T00:46:51.939Z,99276.06
2022-12-23T00:49:39.294Z,99274.81
2022-12-23T00:52:08.777Z,99265.94
2022-12-23T00:54:36.873Z,99266.03
2022-12-23T00:57:04.973Z,99262.75
2022-12-23T00:59:32.719Z,99262.81
2022-12-23T01:02:18.065Z,99266.59
2022-12-23T01:05:04.614Z,99257.31
2022-12-23T01:07:32.399Z,99274.03
2022-12-23T01:10:00.146Z,99261.59
2022-12-23T01:12:28.294Z,99269.66
2022-12-23T01:14:56.081Z,99271.69
2022-12-23T01:17:23.979Z,99273.00
2022-12-23T01:19:53.166Z,99280.41
2022-12-23T01:22:20.951Z,99268.06
2022-12-23T01:24:48.752Z,99269.63
2022-12-23T01:27:16.515Z,99270.06
2022-12-23T01:29:44.219Z,99274.56
2022-12-23T01:32:12.067Z,99291.50
2022-12-23T01:34:39.874Z,99289.69
2022-12-23T01:37:08.925Z,99296.25
2022-12-23T01:39:36.721Z,99315.09
2022-12-23T01:42:22.830Z,99319.75
2022-12-23T01:44:55.051Z,99314.66
2022-12-23T01:47:31.572Z,99320.06
2022-12-23T01:50:06.761Z,99315.97
2022-12-23T01:52:41.343Z,99322.88
2022-12-23T01:55:10.293Z,99320.06
2022-12-23T01:57:42.395Z,99332.31
2022-12-23T02:00:28.746Z,99336.69
2022-12-23T02:03:14.196Z,99332.97
2022-12-23T02:05:43.861Z,99345.22
2022-12-23T02:08:32.915Z,99336.69
2022-12-23T02:11:19.915Z,99328.94
2022-12-23T02:14:16.619Z,99337.75
2022-12-23T02:16:54.537Z,99347.19
2022-12-23T02:19:45.317Z,99342.25
2022-12-23T02:22:37.828Z,99345.94
2022-12-23T02:25:32.437Z,99359.47
2022-12-23T02:28:18.772Z,99351.75
2022-12-23T02:30:52.533Z,99361.13
2022-12-23T02:33:31.637Z,99372.41
2022-12-23T02:36:10.380Z,99362.84
2022-12-23T02:38:49.111Z,99371.38
2022-12-23T02:41:24.051Z,99377.91
2022-12-23T02:43:58.813Z,99373.63
2022-12-23T02:46:33.725Z,99384.09
2022-12-23T02:49:08.319Z,99384.94
2022-12-23T02:51:40.216Z,99381.88
2022-12-23T02:54:12.422Z,99378.94
2022-12-23T02:56:46.299Z,99384.72
2022-12-23T02:59:18.701Z,99386.22
2022-12-23T03:01:48.963Z,99392.75
2022-12-23T03:04:16.831Z,99371.72
2022-12-23T03:06:47.039Z,99373.50
2022-12-23T03:09:21.873Z,99369.44
2022-12-23T03:12:09.036Z,99373.34
2022-12-23T03:14:59.171Z,99371.78
2022-12-23T03:17:39.630Z,99358.69
2022-12-23T03:20:14.749Z,99384.06
2022-12-23T03:22:51.161Z,99385.81
2022-12-23T03:25:24.344Z,99392.31
2022-12-23T03:27:58.263Z,99399.28
2022-12-23T03:30:26.531Z,99393.09
2022-12-23T03:32:59.380Z,99385.06
2022-12-23T03:35:33.543Z,99394.25
2022-12-23T03:38:03.508Z,99396.16
2022-12-23T03:40:36.806Z,99397.56
2022-12-23T03:43:08.272Z,99401.06
2022-12-23T03:45:42.264Z,99411.22
2022-12-23T03:48:18.748Z,99404.66
2022-12-23T03:50:48.982Z,99414.56
2022-12-23T03:53:23.405Z,99422.44
2022-12-23T03:55:57.232Z,99428.91
2022-12-23T03:58:35.092Z,99433.63
2022-12-23T04:01:11.830Z,99433.97
2022-12-23T04:03:50.842Z,99437.69
2022-12-23T04:06:21.937Z,99425.41
2022-12-23T04:08:51.071Z,99433.09
2022-12-23T04:11:19.323Z,99437.22
2022-12-23T04:13:49.043Z,99448.75
2022-12-23T04:16:17.509Z,99447.81
2022-12-23T04:18:47.839Z,99452.66
2022-12-23T04:21:15.622Z,99461.84
2022-12-23T04:23:43.490Z,99473.63
2022-12-23T04:26:11.281Z,99476.34
2022-12-23T04:28:38.976Z,99455.00
2022-12-23T04:31:06.809Z,99459.31
2022-12-23T04:33:34.632Z,99457.13
2022-12-23T04:36:03.847Z,99460.56
2022-12-23T04:38:31.674Z,99454.31
2022-12-23T04:40:59.459Z,99449.59
2022-12-23T04:43:27.265Z,99452.44
2022-12-23T04:45:55.060Z,99450.78
2022-12-23T04:48:22.952Z,99441.81
2022-12-23T04:50:50.725Z,99450.44
2022-12-23T04:53:19.842Z,99476.63
2022-12-23T04:55:51.310Z,99470.59
2022-12-23T04:58:22.060Z,99473.78
2022-12-23T05:00:50.123Z,99479.69
2022-12-23T05:03:18.328Z,99473.78
2022-12-23T05:05:46.370Z,99461.50
2022-12-23T05:08:14.126Z,99465.53
2022-12-23T05:10:43.286Z,99487.13
2022-12-23T05:13:11.184Z,99490.44
2022-12-23T05:15:38.930Z,99478.50
2022-12-23T05:18:06.820Z,99472.84
2022-12-23T05:20:34.938Z,99470.81
2022-12-23T05:23:02.667Z,99475.28
2022-12-23T05:25:30.736Z,99486.97
2022-12-23T05:27:59.900Z,99493.25
2022-12-23T05:30:27.768Z,99496.56
2022-12-23T05:32:56.179Z,99482.53
2022-12-23T05:35:25.094Z,99487.22
2022-12-23T05:37:53.135Z,99496.66
2022-12-23T05:40:24.660Z,99493.72
2022-12-23T05:42:53.024Z,99491.09
2022-12-23T05:45:22.416Z,99491.94
2022-12-23T05:47:50.261Z,99494.88
2022-12-23T05:50:18.142Z,99487.13
2022-12-23T05:52:45.941Z,99503.50
2022-12-23T05:55:13.688Z,99492.41
2022-12-23T05:57:41.529Z,99502.81
2022-12-23T06:00:11.163Z,99490.31
2022-12-23T06:02:40.475Z,99513.41
2022-12-23T06:05:09.240Z,99495.84
2022-12-23T06:07:37.290Z,99502.19
2022-12-23T06:10:06.002Z,99494.66
2022-12-23T06:12:33.850Z,99503.97
2022-12-23T06:15:01.711Z,99514.28
2022-12-23T06:17:29.511Z,99506.84
2022-12-23T06:19:58.657Z,99512.16
2022-12-23T06:22:26.555Z,99507.19
2022-12-23T06:24:54.294Z,99509.00
2022-12-23T06:27:22.036Z,99509.78
2022-12-23T06:29:49.859Z,99513.19
2022-12-23T06:32:17.648Z,99508.31
2022-12-23T06:34:50.175Z,99515.88
2022-12-23T06:37:19.285Z,99525.09
2022-12-23T06:39:47.028Z,99529.91
2022-12-23T06:42:14.820Z,99543.19
2022-12-23T06:44:42.746Z,99541.91
2022-12-23T06:47:10.573Z,99539.22
2022-12-23T06:49:38.383Z,99540.38
2022-12-23T06:52:06.358Z,99549.94
2022-12-23T06:54:35.439Z,99537.00
2022-12-23T06:57:03.172Z,99544.56
2022-12-23T06:59:31.506Z,99551.38
2022-12-23T07:01:59.421Z,99564.13
2022-12-23T07:04:27.372Z,99552.69
2022-12-23T07:06:55.248Z,99559.00
2022-12-23T07:09:23.052Z,99537.19
2022-12-23T07:11:52.180Z,99547.56
2022-12-23T07:14:19.950Z,99543.59
2022-12-23T07:16:48.182Z,99526.72
2022-12-23T07:19:16.093Z,99533.44
2022-12-23T07:21:43.869Z,99529.19
2022-12-23T07:24:11.963Z,99530.63
2022-12-23T07:26:39.792Z,99541.22
2022-12-23T07:29:08.960Z,99522.13
2022-12-23T07:31:40.780Z,99538.50
2022-12-23T07:34:10.757Z,99548.75
2022-12-23T07:36:38.577Z,99545.09
2022-12-23T07:39:06.499Z,99552.78
2022-12-23T07:41:34.305Z,99558.69
2022-12-23T07:44:02.122Z,99551.69
2022-12-23T07:46:31.329Z,99564.59
2022-12-23T07:48:59.242Z,99582.97
2022-12-23T07:51:27.002Z,99588.66
2022-12-23T07:53:54.819Z,99581.91
2022-12-23T07:56:22.647Z,99576.84
2022-12-23T07:58:50.859Z,99582.97
2022-12-23T08:01:19.675Z,99587.81
2022-12-23T08:03:48.975Z,99574.72
2022-12-23T08:06:17.419Z,99566.22
2022-12-23T08:08:47.172Z,99578.97
2022-12-23T08:11:16.638Z,99584.28
2022-12-23T08:13:46.265Z,99581.44
2022-12-23T08:16:14.127Z,99559.50
2022-12-23T08:18:43.144Z,99565.72
2022-12-23T08:21:15.669Z,99568.53
2022-12-23T08:23:43.935Z,99564.84
2022-12-23T08:26:14.386Z,99557.16
2022-12-23T08:28:43.525Z,99567.72
2022-12-23T08:31:14.014Z,99568.59
2022-12-23T08:33:44.147Z,99569.16
2022-12-23T08:36:19.206Z,99569.50
2022-12-23T08:38:50.820Z,99566.97
2022-12-23T08:41:21.375Z,99563.63
2022-12-23T08:43:49.317Z,99565.38
2022-12-23T08:46:17.255Z,99571.38
2022-12-23T08:48:49.483Z,99564.91
2022-12-23T08:51:21.648Z,99556.63
2022-12-23T08:53:54.813Z,99552.31
2022-12-23T08:56:26.272Z,99563.19
2022-12-23T08:58:55.615Z,99568.69
2022-12-23T09:01:25.821Z,99573.63
2022-12-23T09:03:54.454Z,99575.31
2022-12-23T09:06:29.680Z,99578.28
2022-12-23T09:08:58.317Z,99584.53
2022-12-23T09:11:27.876Z,99582.78
2022-12-23T09:13:56.551Z,99585.34
2022-12-23T09:16:24.675Z,99581.84
2022-12-23T09:18:52.509Z,99582.94
2022-12-23T09:21:21.984Z,99586.66
2022-12-23T09:23:51.343Z,99587.25
2022-12-23T09:26:21.454Z,99591.53
2022-12-23T09:28:49.325Z,99585.66
2022-12-23T09:31:17.809Z,99580.91
2022-12-23T09:33:47.970Z,99582.66
2022-12-23T09:36:16.067Z,99579.25
2022-12-23T09:38:44.280Z,99577.56
2022-12-23T09:41:24.133Z,99563.31
2022-12-23T09:43:59.930Z,99556.78
2022-12-23T09:46:30.836Z,99547.50
2022-12-23T09:49:03.305Z,99560.47
2022-12-23T09:51:32.301Z,99568.97
2022-12-23T09:54:04.586Z,99573.19
2022-12-23T09:56:41.231Z,99570.91
2022-12-23T09:59:24.838Z,99563.63
2022-12-23T10:01:59.172Z,99562.06
2022-12-23T10:04:42.859Z,99562.22
2022-12-23T10:07:32.302Z,99576.75
2022-12-23T10:10:07.286Z,99570.06
2022-12-23T10:12:41.754Z,99555.22
2022-12-23T10:15:22.361Z,99545.03
2022-12-23T10:17:54.141Z,99548.44
2022-12-23T10:20:32.451Z,99542.16
2022-12-23T10:23:00.975Z,99542.38
2022-12-23T10:25:34.472Z,99531.25
2022-12-23T10:28:04.959Z,99525.81
2022-12-23T10:33:37.549Z,99520.16
2022-12-23T10:36:14.567Z,99518.91
2022-12-23T10:38:52.798Z,99520.81
2022-12-23T10:41:29.859Z,99518.28
2022-12-23T10:44:27.195Z,99516.47
2022-12-23T10:47:06.589Z,99510.13
2022-12-23T10:49:43.318Z,99481.94
2022-12-23T10:52:16.427Z,99493.03
2022-12-23T10:54:46.436Z,99498.97
2022-12-23T10:57:16.190Z,99493.22
2022-12-23T10:59:45.572Z,99501.63
2022-12-23T11:02:33.101Z,99492.56
2022-12-23T11:05:01.032Z,99478.38
2022-12-23T11:07:46.486Z,99471.06
2022-12-23T11:10:18.763Z,99477.88
2022-12-23T11:12:49.397Z,99460.56
2022-12-23T11:15:31.633Z,99464.56
2022-12-23T11:18:08.063Z,99457.25
2022-12-23T11:20:37.534Z,99461.94
2022-12-23T11:23:07.386Z,99443.66
2022-12-23T11:25:38.157Z,99452.44
2022-12-23T11:28:16.207Z,99427.97
2022-12-23T11:30:56.553Z,99423.44
2022-12-23T11:33:27.569Z,99426.16
2022-12-23T11:36:04.520Z,99411.34
2022-12-23T11:38:33.095Z,99409.63
2022-12-23T11:41:01.801Z,99398.34
2022-12-23T11:43:30.256Z,99386.53
2022-12-23T11:46:26.369Z,99396.25
2022-12-23T11:49:06.933Z,99400.28
2022-12-23T11:51:34.919Z,99378.88
2022-12-23T11:54:03.938Z,99388.41
2022-12-23T11:56:38.589Z,99376.59
2022-12-23T11:59:09.894Z,99377.41
2022-12-23T12:01:40.231Z,99378.94
2022-12-23T12:04:15.725Z,99366.31
2022-12-23T12:06:48.443Z,99356.31
2022-12-23T12:09:21.932Z,99343.91
2022-12-23T12:11:52.319Z,99345.06
2022-12-23T12:14:26.210Z,99341.38
2022-12-23T12:17:01.672Z,99334.97
2022-12-23T12:19:34.462Z,99333.31
2022-12-23T12:22:07.087Z,99320.72
2022-12-23T12:24:39.963Z,99297.75
2022-12-23T12:27:11.291Z,99300.78
2022-12-23T12:29:44.692Z,99313.44
2022-12-23T12:32:21.800Z,99315.88
2022-12-23T12:34:55.736Z,99318.00
2022-12-23T12:37:33.857Z,99309.63
2022-12-23T12:40:04.067Z,99304.00
2022-12-23T12:42:39.159Z,99300.41
2022-12-23T12:45:18.300Z,99302.31
2022-12-23T12:48:05.977Z,99302.59
2022-12-23T12:50:45.586Z,99292.75
2022-12-23T12:53:19.840Z,99291.91
2022-12-23T12:55:51.846Z,99301.03
2022-12-23T12:58:22.859Z,99291.94
2022-12-23T13:01:03.644Z,99285.78
2022-12-23T13:04:05.649Z,99277.16
2022-12-23T13:06:40.778Z,99255.59
2022-12-23T13:09:21.262Z,99247.94
2022-12-23T13:11:56.205Z,99248.91
2022-12-23T13:14:35.239Z,99243.13
2022-12-23T13:17:09.561Z,99230.88
2022-12-23T13:19:47.545Z,99237.69
2022-12-23T13:22:18.520Z,99228.88
2022-12-23T13:25:00.215Z,99214.47
2022-12-23T13:27:32.741Z,99204.28
2022-12-23T13:30:13.135Z,99202.50
2022-12-23T13:33:05.067Z,99194.34
2022-12-23T13:35:49.876Z,99194.78
2022-12-23T13:38:31.539Z,99191.44
2022-12-23T13:41:05.795Z,99190.09
2022-12-23T13:43:42.714Z,99194.69
2022-12-23T13:46:19.603Z,99191.69
2022-12-23T13:48:58.572Z,99187.66
2022-12-23T13:51:34.140Z,99177.72
2022-12-23T13:54:12.285Z,99176.84
2022-12-23T13:56:44.004Z,99173.00
2022-12-23T13:59:15.533Z,99167.81
2022-12-23T14:01:48.523Z,99167.56
2022-12-23T14:04:59.324Z,99149.91
2022-12-23T14:07:31.668Z,99142.72
2022-12-23T14:10:10.204Z,99155.28
2022-12-23T14:12:40.763Z,99168.59
2022-12-23T14:15:36.605Z,99153.22
2022-12-23T14:18:18.986Z,99142.69
2022-12-23T14:20:52.173Z,99130.88
2022-12-23T14:23:34.299Z,99126.50
2022-12-23T14:26:20.159Z,99130.44
2022-12-23T14:29:03.043Z,99117.94
2022-12-23T14:31:36.421Z,99112.84
2022-12-23T14:34:07.265Z,99105.78
2022-12-23T14:36:35.321Z,99105.47
2022-12-23T14:39:31.962Z,99098.47
2022-12-23T14:42:06.007Z,99089.63
2022-12-23T14:44:50.364Z,99096.25
2022-12-23T14:47:34.444Z,99085.38
2022-12-23T14:50:38.355Z,99078.88
2022-12-23T14:53:21.827Z,99082.41
2022-12-23T14:55:53.608Z,99075.06
2022-12-23T14:58:51.297Z,99084.06
2022-12-23T15:01:22.612Z,99081.25
2022-12-23T15:03:59.227Z,99076.16
2022-12-23T15:06:36.506Z,99088.38
2022-12-23T15:09:07.565Z,99058.03
2022-12-23T15:11:37.571Z,99080.41
2022-12-23T15:14:10.294Z,99076.00
2022-12-23T15:16:40.376Z,99107.00
2022-12-23T15:19:22.530Z,99090.91
2022-12-23T15:21:59.608Z,99109.31
2022-12-23T15:24:33.251Z,99096.13
2022-12-23T15:27:25.411Z,99087.16
2022-12-23T15:29:53.136Z,99057.19
2022-12-23T15:32:24.280Z,99083.00
2022-12-23T15:34:53.732Z,99065.41
2022-12-23T15:37:28.865Z,99071.66
2022-12-23T15:40:04.821Z,99076.47
2022-12-23T15:42:39.239Z,99112.22
2022-12-23T15:45:36.218Z,99107.94
2022-12-23T15:48:06.570Z,99095.16
2022-12-23T15:50:41.853Z,99092.84
2022-12-23T15:53:11.741Z,99072.59
2022-12-23T15:55:41.402Z,99072.69
2022-12-23T15:58:19.679Z,99089.38
2022-12-23T16:00:56.331Z,99085.97
2022-12-23T16:03:29.513Z,99079.69
2022-12-23T16:06:11.238Z,99069.31
2022-12-23T16:08:39.872Z,99065.16
2022-12-23T16:11:14.925Z,99064.75
2022-12-23T16:13:58.524Z,99071.81
2022-12-23T16:16:38.360Z,99053.13
2022-12-23T16:19:06.535Z,99060.13
2022-12-23T16:21:37.573Z,99064.59
2022-12-23T16:24:09.794Z,99047.94
2022-12-23T16:26:41.454Z,99037.63
2022-12-23T16:29:12.471Z,99058.31
2022-12-23T16:31:45.728Z,99036.56
2022-12-23T16:34:19.103Z,99053.88
2022-12-23T16:36:46.976Z,99055.13
2022-12-23T16:39:21.465Z,99057.03
2022-12-23T16:41:49.768Z,99049.47
2022-12-23T16:44:18.962Z,99058.25
2022-12-23T16:46:50.594Z,99056.09
2022-12-23T16:49:20.976Z,99066.25
2022-12-23T16:51:49.753Z,99060.81
2022-12-23T16:54:21.454Z,99057.28
2022-12-23T16:56:50.092Z,99070.44
2022-12-23T16:59:19.835Z,99081.06
2022-12-23T17:01:49.543Z,99077.31
2022-12-23T17:04:17.543Z,99079.78
2022-12-23T17:06:46.553Z,99090.38
2022-12-23T17:09:14.611Z,99097.97
2022-12-23T17:11:44.649Z,99090.88
2022-12-23T17:14:17.273Z,99107.16
2022-12-23T17:16:47.954Z,99090.25
2022-12-23T17:19:20.515Z,99106.00
2022-12-23T17:21:56.529Z,99085.31
2022-12-23T17:24:26.060Z,99101.38
2022-12-23T17:26:56.677Z,99094.50
2022-12-23T17:29:24.865Z,99077.84
2022-12-23T17:31:54.305Z,99081.66
2022-12-23T17:34:24.509Z,99103.31
2022-12-23T17:36:53.198Z,99098.47
2022-12-23T17:39:22.146Z,99101.72
2022-12-23T17:41:49.993Z,99097.41
2022-12-23T17:44:18.772Z,99107.75
2022-12-23T17:46:47.562Z,99122.75
2022-12-23T17:49:16.843Z,99118.38
2022-12-23T17:51:45.048Z,99124.91
2022-12-23T17:54:22.964Z,99126.06
2022-12-23T17:56:51.374Z,99086.94
2022-12-23T17:59:19.493Z,99099.63
2022-12-23T18:01:47.441Z,99104.75
2022-12-23T18:04:19.459Z,99138.81
2022-12-23T18:06:47.426Z,99122.75
2022-12-23T18:09:15.401Z,99131.13
2022-12-23T18:11:46.617Z,99138.22
2022-12-23T18:14:18.732Z,99147.25
2022-12-23T18:16:47.107Z,99128.34
2022-12-23T18:19:21.300Z,99134.16
2022-12-23T18:21:49.824Z,99121.03
2022-12-23T18:24:18.733Z,99135.38
2022-12-23T18:26:47.562Z,99153.88
2022-12-23T18:29:18.650Z,99149.88
2022-12-23T18:31:51.915Z,99145.44
2022-12-23T18:34:22.085Z,99164.22
2022-12-23T18:36:51.928Z,99169.63
2022-12-23T18:39:20.145Z,99181.94
2022-12-23T18:41:48.181Z,99176.78
2022-12-23T18:44:20.037Z,99193.31
2022-12-23T18:46:48.221Z,99189.03
2022-12-23T18:49:16.245Z,99198.03
2022-12-23T18:51:45.712Z,99193.66
2022-12-23T18:54:15.334Z,99209.81
2022-12-23T18:56:43.175Z,99207.50
2022-12-23T18:59:17.010Z,99223.88
2022-12-23T19:01:45.057Z,99217.38
2022-12-23T19:04:13.327Z,99231.53
2022-12-23T19:06:41.947Z,99220.97
2022-12-23T19:09:15.348Z,99223.13
2022-12-23T19:11:43.396Z,99231.31
2022-12-23T19:14:13.094Z,99231.53
2022-12-23T19:16:47.579Z,99242.41
2022-12-23T19:19:19.040Z,99233.88
2022-12-23T19:21:47.215Z,99251.31
2022-12-23T19:24:16.819Z,99214.94
2022-12-23T19:26:44.754Z,99244.34
2022-12-23T19:29:12.762Z,99260.78
2022-12-23T19:31:41.309Z,99261.63
2022-12-23T19:34:14.543Z,99271.34
2022-12-23T19:36:43.549Z,99277.78
2022-12-23T19:39:16.096Z,99282.75
2022-12-23T19:41:45.841Z,99270.50
2022-12-23T19:44:13.888Z,99268.69
2022-12-23T19:46:42.239Z,99271.56
2022-12-23T19:49:15.712Z,99289.56
2022-12-23T19:51:47.208Z,99282.31
2022-12-23T19:54:15.134Z,99293.28
2022-12-23T19:56:43.083Z,99290.47
2022-12-23T19:59:12.456Z,99316.59
2022-12-23T20:01:40.256Z,99304.53
2022-12-23T20:04:08.136Z,99289.06
2022-12-23T20:06:38.309Z,99307.91
2022-12-23T20:09:07.796Z,99303.03
2022-12-23T20:11:37.885Z,99320.31
2022-12-23T20:14:06.650Z,99318.94
2022-12-23T20:16:37.100Z,99323.31
2022-12-23T20:19:05.657Z,99342.25
2022-12-23T20:21:34.128Z,99339.06
2022-12-23T20:24:02.756Z,99342.69
2022-12-23T20:26:31.278Z,99346.84
2022-12-23T20:28:59.487Z,99342.41
2022-12-23T20:31:29.266Z,99350.00
2022-12-23T20:33:59.990Z,99362.72
2022-12-23T20:36:30.711Z,99364.13
2022-12-23T20:38:59.306Z,99382.66
2022-12-23T20:41:30.259Z,99380.00
2022-12-23T20:46:46.696Z,99391.25
2022-12-23T20:49:15.968Z,99355.75
2022-12-23T20:51:43.750Z,99355.22
2022-12-23T20:54:11.558Z,99364.13
2022-12-23T20:56:39.537Z,99363.22
2022-12-23T20:59:07.748Z,99386.53
2022-12-23T21:01:37.936Z,99385.22
2022-12-23T21:04:08.190Z,99384.47
2022-12-23T21:06:38.033Z,99385.38
2022-12-23T21:09:07.742Z,99397.22
2022-12-23T21:11:38.739Z,99401.94
2022-12-23T21:14:07.729Z,99400.81
2022-12-23T21:16:37.652Z,99401.31
2022-12-23T21:19:06.317Z,99398.31
2022-12-23T21:21:34.340Z,99416.72
2022-12-23T21:24:05.169Z,99428.09
2022-12-23T21:26:34.948Z,99433.44
2022-12-23T21:29:05.505Z,99428.81
2022-12-23T21:31:35.710Z,99431.53
2022-12-23T21:34:04.395Z,99439.38
2022-12-23T21:36:33.770Z,99452.78
2022-12-23T21:39:03.475Z,99445.19
2022-12-23T21:41:34.972Z,99433.44
2022-12-23T21:44:03.635Z,99435.81
2022-12-23T21:46:31.554Z,99446.78
2022-12-23T21:49:00.099Z,99449.19
2022-12-23T21:51:36.897Z,99445.69
2022-12-23T21:54:09.433Z,99461.47
2022-12-23T21:56:37.432Z,99436.44
2022-12-23T21:59:07.594Z,99469.06
2022-12-23T22:01:35.668Z,99476.22
2022-12-23T22:04:04.347Z,99483.19
2022-12-23T22:06:34.194Z,99485.09
2022-12-23T22:09:02.057Z,99482.47
2022-12-23T22:11:33.442Z,99490.38
2022-12-23T22:14:02.577Z,99483.63
2022-12-23T22:16:31.645Z,99487.16
2022-12-23T22:19:01.437Z,99489.81
2022-12-23T22:21:31.168Z,99489.56
2022-12-23T22:23:59.238Z,99492.13
2022-12-23T22:26:28.878Z,99509.47
2022-12-23T22:29:00.782Z,99498.03
2022-12-23T22:31:32.867Z,99510.16
2022-12-23T22:34:00.836Z,99502.25
2022-12-23T22:36:28.756Z,99505.38
2022-12-23T22:39:01.736Z,99512.72
2022-12-23T22:41:31.119Z,99515.84
2022-12-23T22:44:01.176Z,99518.56
2022-12-23T22:46:29.449Z,99523.59
2022-12-23T22:48:58.872Z,99532.09
2022-12-23T22:51:29.347Z,99532.16
2022-12-23T22:53:57.784Z,99538.78
2022-12-23T22:56:26.860Z,99541.44
2022-12-23T22:58:54.960Z,99555.53
2022-12-23T23:01:26.010Z,99555.34
2022-12-23T23:03:57.314Z,99563.34
2022-12-23T23:06:26.810Z,99580.31
2022-12-23T23:08:54.913Z,99570.94
2022-12-23T23:11:23.369Z,99576.88
2022-12-23T23:13:51.571Z,99591.19
2022-12-23T23:16:19.640Z,99596.41
2022-12-23T23:18:48.882Z,99598.97
2022-12-23T23:21:16.971Z,99603.16
2022-12-23T23:23:44.961Z,99602.34
2022-12-23T23:26:14.024Z,99601.84
2022-12-23T23:28:42.295Z,99601.41
2022-12-23T23:31:40.689Z,99601.41
2022-12-23T23:34:00.006Z,99604.31
2022-12-23T23:36:27.863Z,99615.78
2022-12-23T23:38:55.744Z,99617.19
2022-12-23T23:41:24.367Z,99633.19
2022-12-23T23:43:52.771Z,99632.06
2022-12-23T23:46:20.975Z,99631.06
2022-12-23T23:48:48.797Z,99630.06
2022-12-23T23:51:17.903Z,99635.56
2022-12-23T23:53:45.772Z,99632.78
2022-12-23T23:56:13.587Z,99628.22
2022-12-23T23:58:41.398Z,99630.41
